Latest Weather Observations for Noonamah

IDD60801

Issued at 11:21 pm CST Sunday 17 February 2019 (issued every 10 minutes, with the page automatically refreshed every 10 minutes)

About weather observations | Map of weather stations | Latest weather observations for NT | Other Formats
Station Details ID: 014314 Name: NOONAMAH AIRSTRIP Lat: -12.61 Lon: 131.05 Height: 17.5 m
Data from the previous 72 hours. | See also: Recent months at Noonamah
Date/Time
CST
Temp
°C
App
Temp
°C
Dew
Point
°C
Rel
Hum
%
Delta-T
°C
Wind Press
QNH
hPa
Press
MSL
hPa
Rain since
9am
mm
Dir  Spd
km/h
Gust
km/h
Spd
kts
Gust
kts
17/11:00pm 25.0 30.5 23.4 91 1.1 CALM 0 0 0 0 1011.1 1010.9 -
17/10:30pm 25.0 30.7 23.8 93 0.8 CALM 0 0 0 0 1010.7 1010.5 -
17/10:00pm 25.0 30.6 23.6 92 1.0 CALM 0 0 0 0 1010.7 1010.5 -
17/09:30pm 24.9 30.3 23.3 91 1.1 CALM 0 0 0 0 1010.6 1010.4 -
17/09:00pm 24.7 29.9 22.8 89 1.3 CALM 0 0 0 0 1010.1 1009.9 40.0
17/08:30pm 24.8 29.0 22.5 87 1.5 SSW 4 7 2 4 1009.6 1009.4 -
17/08:00pm 24.9 29.8 23.0 89 1.3 S 2 2 1 1 1008.9 1008.7 -
17/07:30pm 25.3 30.0 22.6 85 1.8 S 2 4 1 2 1009.1 1008.9 -
17/07:00pm 25.2 28.8 22.3 84 1.9 SW 7 13 4 7 1009.1 1008.9 -
17/06:30pm 24.8 28.3 21.9 84 1.9 SSW 6 11 3 6 1008.7 1008.5 -
17/06:00pm 25.1 28.8 22.2 84 1.9 SSW 6 11 3 6 1008.6 1008.4 -
17/05:30pm 25.1 26.8 21.0 78 2.7 SW 13 22 7 12 1008.4 1008.2 -
17/05:00pm 24.4 28.4 22.7 90 1.1 SSW 6 9 3 5 1007.9 1007.7 -
17/04:30pm 23.7 26.8 22.1 91 1.1 WNW 9 17 5 9 1007.0 1006.8 -
17/04:00pm 24.2 27.1 22.5 90 1.1 WSW 11 20 6 11 1008.2 1008.0 -
17/03:40pm 26.8 28.2 21.8 74 3.3 N 17 43 9 23 1007.8 1007.6 -
17/03:30pm 32.3 36.8 24.6 64 5.4 WSW 9 17 5 9 1007.4 1007.2 -
17/03:00pm 33.8 37.8 23.8 56 7.0 WSW 9 15 5 8 1007.5 1007.3 -
17/02:30pm 35.1 39.7 23.1 49 8.3 SSW 4 13 2 7 1008.4 1008.2 -
17/02:00pm 33.6 37.6 22.1 51 7.9 SSW 4 9 2 5 1008.8 1008.6 -
17/01:30pm 34.5 38.7 24.1 54 7.3 SSW 9 17 5 9 1009.5 1009.3 -
17/01:00pm 33.4 37.5 22.2 52 7.7 SSW 4 9 2 5 1010.1 1009.9 -
17/12:30pm 33.3 37.1 22.4 52 7.5 SW 6 11 3 6 1010.6 1010.4 -
17/12:00pm 32.4 37.1 23.4 59 6.2 SSW 4 9 2 5 1010.9 1010.7 -
17/11:30am 32.4 36.8 23.4 59 6.2 SSW 6 13 3 7 1011.3 1011.1 -
17/11:00am 31.7 35.8 23.2 60 5.9 SSW 7 13 4 7 1011.5 1011.3 -
17/10:30am 30.9 35.5 23.8 66 4.9 SSW 6 11 3 6 1011.6 1011.4 -
17/10:00am 29.9 35.2 24.3 72 3.9 SSW 4 6 2 3 1011.8 1011.6 -
17/09:30am 29.0 34.3 24.3 76 3.3 SSW 4 7 2 4 1012.0 1011.8 -
17/09:00am 27.7 33.6 24.1 81 2.5 CALM 0 4 0 2 1011.9 1011.7 0.2
17/08:30am 25.6 31.7 24.4 93 0.8 CALM 0 0 0 0 1011.6 1011.4 0.2
17/08:00am 24.9 30.7 24.0 95 0.6 CALM 0 0 0 0 1011.3 1011.1 0.2
17/07:30am 24.5 30.1 23.6 95 0.6 CALM 0 0 0 0 1010.9 1010.7 0.2
17/07:00am 24.3 29.9 23.6 96 0.5 CALM 0 0 0 0 1010.6 1010.4 0.2
17/06:30am 24.3 29.9 23.6 96 0.5 CALM 0 0 0 0 1010.5 1010.3 0.2
17/06:00am 24.2 29.0 23.5 96 0.5 SSE 4 6 2 3 1010.0 1009.8 0.2
17/05:30am 24.3 29.5 23.6 96 0.5 SSE 2 6 1 3 1009.8 1009.6 0.2
17/05:00am 24.1 29.5 23.2 95 0.6 CALM 0 0 0 0 1009.6 1009.4 0.2
17/04:30am 24.1 29.5 23.2 95 0.6 CALM 0 0 0 0 1009.2 1009.0 0.2
17/04:00am 24.2 29.3 23.3 95 0.6 SSE 2 4 1 2 1008.8 1008.6 0.2
17/03:30am 24.3 29.0 23.4 95 0.6 SSE 4 6 2 3 1008.9 1008.7 0.2
17/03:00am 24.4 29.9 23.4 94 0.7 CALM 0 0 0 0 1009.0 1008.8 0.2
17/02:30am 24.6 29.7 23.4 93 0.8 SSW 2 4 1 2 1009.2 1009.0 0.2
17/02:00am 24.8 30.0 23.6 93 0.8 SSW 2 6 1 3 1009.5 1009.3 0.2
17/01:30am 24.9 30.2 23.7 93 0.8 SSW 2 4 1 2 1010.2 1010.0 0.2
17/01:00am 25.1 30.7 23.5 91 1.1 CALM 0 0 0 0 1010.7 1010.5 0.2
17/12:30am 25.1 30.7 23.5 91 1.1 CALM 0 6 0 3 1011.2 1011.0 0.2
17/12:00am 25.0 29.5 23.6 92 1.0 SSW 6 11 3 6 1011.6 1011.4 0.2
 
Date/Time
CST
Temp
°C
App
Temp
°C
Dew
Point
°C
Rel
Hum
%
Delta-T
°C
Wind Press
QNH
hPa
Press
MSL
hPa
Rain since
9am
mm
Dir  Spd
km/h
Gust
km/h
Spd
kts
Gust
kts
16/11:30pm 25.2 30.7 23.4 90 1.2 CALM 0 0 0 0 1011.5 1011.3 0.2
16/11:00pm 25.2 30.3 23.3 89 1.3 SSE 2 4 1 2 1011.6 1011.4 0.2
16/10:30pm 25.3 29.9 23.2 88 1.4 SSE 4 7 2 4 1011.8 1011.6 0.2
16/10:00pm 25.8 29.0 23.1 85 1.8 SE 11 17 6 9 1011.6 1011.4 0.2
16/09:30pm 26.0 30.5 22.9 83 2.1 SSE 4 11 2 6 1011.4 1011.2 0.2
16/09:00pm 26.1 30.4 22.6 81 2.4 S 4 7 2 4 1011.4 1011.2 0.2
16/08:30pm 26.1 30.4 22.6 81 2.4 S 4 9 2 5 1010.8 1010.6 0.2
16/08:00pm 25.9 30.3 22.8 83 2.1 S 4 9 2 5 1010.9 1010.7 0.2
16/07:30pm 26.2 30.2 22.7 81 2.4 S 6 11 3 6 1010.8 1010.6 0.2
16/07:00pm 26.1 29.2 22.8 82 2.2 S 11 24 6 13 1010.2 1010.0 0.2
16/06:30pm 26.8 29.4 22.6 78 2.8 WSW 13 20 7 11 1009.4 1009.2 0.2
16/06:00pm 27.5 28.2 21.5 70 4.0 SW 20 37 11 20 1009.3 1009.1 0.2
16/05:30pm 31.9 36.0 24.0 63 5.5 W 9 20 5 11 1007.5 1007.3 0.2
16/05:00pm 33.2 37.0 24.7 61 6.0 WNW 13 20 7 11 1007.4 1007.2 0.2
16/04:30pm 33.5 37.1 24.4 59 6.4 NW 13 20 7 11 1007.1 1006.9 0.2
16/04:00pm 33.4 36.8 23.4 55 6.9 NW 11 17 6 9 1007.2 1007.0 0.2
16/03:30pm 33.9 37.5 25.0 59 6.3 NW 15 26 8 14 1007.4 1007.2 0.2
16/03:00pm 34.6 39.0 24.5 55 7.1 W 9 22 5 12 1007.9 1007.7 0.2
16/02:30pm 35.6 40.2 23.2 48 8.6 SSE 4 7 2 4 1008.5 1008.3 0.2
16/02:00pm 34.9 39.9 23.2 50 8.1 SSE 2 6 1 3 1009.3 1009.1 0.2
16/01:30pm 34.5 39.3 23.5 52 7.7 SW 4 6 2 3 1009.7 1009.5 0.2
16/01:00pm 34.1 39.5 23.8 55 7.2 SSE 2 6 1 3 1010.5 1010.3 0.2
16/12:30pm 33.4 39.6 24.6 60 6.2 CALM 0 0 0 0 1011.0 1010.8 0.2
16/12:00pm 33.0 38.8 24.5 61 6.0 S 2 6 1 3 1011.4 1011.2 0.2
16/11:30am 33.5 38.8 24.4 59 6.4 SE 4 9 2 5 1011.8 1011.6 0.2
16/11:00am 32.7 38.1 23.9 60 6.1 SSE 2 7 1 4 1011.9 1011.7 0.2
16/10:30am 32.0 37.5 24.6 65 5.2 SSE 4 7 2 4 1012.2 1012.0 0.2
16/10:00am 31.9 38.0 25.0 67 4.9 SSE 2 6 1 3 1012.4 1012.2 0.2
16/09:30am 30.6 36.9 25.4 74 3.7 SSE 2 4 1 2 1012.3 1012.1 0.0
16/09:00am 29.5 36.4 25.7 80 2.7 CALM 0 2 0 1 1012.2 1012.0 2.6
16/08:30am 28.5 35.0 25.7 85 2.0 SSE 2 4 1 2 1011.9 1011.7 2.6
16/08:00am 27.2 33.7 25.0 88 1.5 CALM 0 0 0 0 1011.7 1011.5 2.6
16/07:30am 25.9 32.2 24.7 93 0.8 CALM 0 0 0 0 1011.4 1011.2 2.6
16/07:00am 25.0 30.9 24.1 95 0.6 CALM 0 0 0 0 1011.3 1011.1 2.6
16/06:30am 25.0 30.9 24.1 95 0.6 CALM 0 0 0 0 1011.2 1011.0 2.6
16/06:00am 25.2 31.2 24.3 95 0.6 CALM 0 0 0 0 1010.8 1010.6 2.6
16/05:30am 25.2 31.2 24.3 95 0.6 CALM 0 0 0 0 1010.6 1010.4 2.6
16/05:00am 25.2 31.2 24.3 95 0.6 CALM 0 0 0 0 1010.6 1010.4 2.6
16/04:30am 25.3 31.4 24.4 95 0.6 CALM 0 0 0 0 1010.6 1010.4 2.6
16/04:00am 25.4 31.5 24.5 95 0.6 CALM 0 0 0 0 1010.7 1010.5 2.6
16/03:30am 25.6 31.9 24.7 95 0.6 CALM 0 0 0 0 1010.8 1010.6 2.6
16/03:00am 25.5 31.7 24.6 95 0.6 CALM 0 4 0 2 1010.8 1010.6 2.6
16/02:30am 25.4 31.5 24.4 94 0.7 CALM 0 2 0 1 1011.0 1010.8 2.6
16/02:00am 25.7 31.3 24.8 95 0.6 SSE 4 7 2 4 1011.5 1011.3 2.6
16/01:30am 25.9 32.4 25.0 95 0.6 CALM 0 4 0 2 1011.8 1011.6 2.6
16/01:00am 26.1 32.7 25.2 95 0.6 CALM 0 0 0 0 1012.1 1011.9 2.6
16/12:30am 26.0 32.1 25.1 95 0.6 S 2 6 1 3 1012.3 1012.1 2.6
16/12:00am 26.0 32.5 25.1 95 0.6 CALM 0 0 0 0 1012.3 1012.1 2.6
 
Date/Time
CST
Temp
°C
App
Temp
°C
Dew
Point
°C
Rel
Hum
%
Delta-T
°C
Wind Press
QNH
hPa
Press
MSL
hPa
Rain since
9am
mm
Dir  Spd
km/h
Gust
km/h
Spd
kts
Gust
kts
15/11:30pm 26.1 32.6 25.1 94 0.7 CALM 0 0 0 0 1012.2 1012.0 2.6
15/11:00pm 26.4 33.1 25.4 94 0.7 CALM 0 4 0 2 1012.3 1012.1 2.6
15/10:30pm 26.9 33.8 25.7 93 0.8 CALM 0 0 0 0 1012.2 1012.0 2.6
15/10:00pm 26.8 33.6 25.6 93 0.8 CALM 0 0 0 0 1011.8 1011.6 2.6
15/09:30pm 27.1 34.0 25.7 92 1.0 CALM 0 0 0 0 1011.5 1011.3 2.6
15/09:00pm 26.6 32.3 25.0 91 1.1 SSW 4 6 2 3 1011.0 1010.8 2.6
15/08:30pm 26.3 32.7 24.9 92 1.0 CALM 0 0 0 0 1010.8 1010.6 2.6
15/08:00pm 26.8 33.6 25.6 93 0.8 CALM 0 7 0 4 1011.0 1010.8 2.6
15/07:30pm 26.6 33.2 25.2 92 1.0 CALM 0 0 0 0 1010.4 1010.2 2.6
15/07:00pm 26.9 33.4 25.1 90 1.3 CALM 0 0 0 0 1010.4 1010.2 2.6
15/06:30pm 26.6 32.1 24.1 86 1.7 S 2 4 1 2 1009.4 1009.2 2.6
15/06:00pm 26.0 31.2 23.5 86 1.7 S 2 6 1 3 1009.1 1008.9 2.6
15/05:30pm 24.5 27.9 22.0 86 1.7 SW 7 13 4 7 1008.6 1008.4 2.6
15/05:09pm 25.7 24.1 20.0 71 3.7 ENE 28 48 15 26 1009.1 1008.9 0.2
15/05:00pm 30.4 30.7 18.8 50 7.5 N 15 41 8 22 1009.2 1009.0 0.0
15/04:30pm 33.9 38.1 25.3 60 6.1 WNW 13 19 7 10 1008.1 1007.9 0.0
15/04:00pm 34.0 38.2 25.4 61 6.1 WNW 13 24 7 13 1008.7 1008.5 0.0
15/03:30pm 34.3 38.9 25.4 60 6.3 WNW 11 19 6 10 1009.3 1009.1 0.0
15/03:00pm 33.9 38.3 24.5 58 6.6 W 9 19 5 10 1009.3 1009.1 0.0
15/02:30pm 33.9 38.8 23.6 55 7.2 SW 4 15 2 8 1009.5 1009.3 0.0
15/02:00pm 33.9 38.7 24.2 57 6.8 WSW 6 13 3 7 1009.8 1009.6 0.0
15/01:30pm 34.1 39.2 24.7 58 6.6 SW 6 13 3 7 1010.3 1010.1 0.0
15/01:00pm 33.6 39.2 24.8 60 6.2 SSW 4 13 2 7 1010.8 1010.6 0.0
15/12:30pm 32.9 37.8 24.6 61 5.8 SW 7 13 4 7 1011.4 1011.2 0.0
15/12:00pm 32.6 38.0 25.2 65 5.2 SW 6 13 3 7 1011.8 1011.6 0.0
15/11:30am 31.7 36.7 24.8 67 4.9 SW 7 13 4 7 1012.2 1012.0 0.0
15/11:00am 31.0 36.6 25.4 72 4.0 SW 6 13 3 7 1012.4 1012.2 0.0
15/10:30am 30.1 35.8 25.6 77 3.2 SSW 6 9 3 5 1012.5 1012.3 0.0
15/10:00am 29.2 35.5 24.7 77 3.1 CALM 0 0 0 0 1012.4 1012.2 0.0
15/09:30am 27.8 33.6 24.0 80 2.6 CALM 0 0 0 0 1012.3 1012.1 0.0
15/09:00am 26.7 31.9 23.6 83 2.1 S 2 4 1 2 1012.0 1011.8 -
15/08:30am 25.7 30.3 23.2 86 1.7 S 4 6 2 3 1011.8 1011.6 -
15/08:00am 25.2 30.3 23.3 89 1.3 S 2 6 1 3 1011.6 1011.4 -
15/07:30am 24.9 30.0 23.3 91 1.1 S 2 2 1 1 1011.2 1011.0 -
15/07:00am 24.6 28.8 23.2 92 0.9 S 6 9 3 5 1010.6 1010.4 -
15/06:30am 24.6 29.4 22.8 90 1.2 SSE 2 4 1 2 1010.3 1010.1 -
15/06:00am 24.6 29.0 22.8 90 1.2 SSE 4 6 2 3 1009.8 1009.6 -
15/05:30am 24.5 29.2 22.6 89 1.3 S 2 4 1 2 1009.4 1009.2 -
15/05:00am 24.5 28.3 22.4 88 1.4 SW 6 11 3 6 1008.7 1008.5 -
15/04:30am 24.3 28.5 22.4 89 1.3 SSW 4 6 2 3 1008.9 1008.7 -
15/04:00am 24.3 28.6 22.6 90 1.1 SSW 4 9 2 5 1008.6 1008.4 -
15/03:30am 24.4 29.4 22.5 89 1.3 CALM 0 0 0 0 1008.9 1008.7 -
15/03:00am 24.5 28.6 22.2 87 1.5 SSE 4 6 2 3 1009.2 1009.0 -
15/02:30am 24.5 28.4 21.8 85 1.8 SSE 4 7 2 4 1009.9 1009.7 -
15/02:00am 24.4 27.3 21.7 85 1.8 ESE 9 19 5 10 1010.6 1010.4 -
15/01:30am 24.3 28.2 21.8 86 1.7 SSE 4 9 2 5 1010.9 1010.7 -
15/01:00am 24.3 26.2 21.4 84 1.9 ESE 13 24 7 13 1012.3 1012.1 -
15/12:30am 26.3 25.2 21.7 76 3.1 ESE 30 50 16 27 1013.1 1012.9 -
15/12:24am 27.1 30.2 23.6 81 2.4 SSE 13 50 7 27 1012.7 1012.5 -
15/12:00am 28.1 35.5 26.5 91 1.1 CALM 0 0 0 0 1011.4 1011.2 -
 
Date/Time
CST
Temp
°C
App
Temp
°C
Dew
Point
°C
Rel
Hum
%
Delta-T
°C
Wind Press
QNH
hPa
Press
MSL
hPa
Rain since
9am
mm
Dir  Spd
km/h
Gust
km/h
Spd
kts
Gust
kts
14/11:30pm 28.1 35.4 26.3 90 1.3 CALM 0 0 0 0 1011.2 1011.0 4.2

Other Formats:

Comma delimited format used in spreadsheet applications
http://www.bom.gov.au/fwo/IDD60801/IDD60801.94105.axf

JavaScript Object Notation format (JSON) in row-major order
http://www.bom.gov.au/fwo/IDD60801/IDD60801.94105.json